DLH44T EDDF-LFMN
Flight info
| Callsign | DLH44T |
|---|---|
| Flight time | 1h 3m |
| Altitude | 37000 |
| Route | ANEKI2L/18 ANEKI Y163 NATOR DCT TRA DCT RIPUS DCT GERSA DCT SOSON DCT ODINA DCT ENOBA Z185 BORDI |
| Aircraft | A320/M-SDE3FGHIRWY/LB1 |
Departure
| Time | 2026-04-15 15:48 |
|---|---|
| Airport | Frankfurt Main Airport (EDDF) |
Arrival
| Time | 2026-04-15 16:51 |
|---|---|
| Airport | Nice-Côte d'Azur Airport (LFMN) |
| Time | Latitude | Longitude | Altitude | Speed | Heading |
|---|---|---|---|---|---|
| 2026-04-15 15:22 | 50.04431 | 8.56329 | 362 ft | 0 kts | 167° |
| 2026-04-15 15:37 | 50.04445 | 8.56324 | 364 ft | 4 kts | 168° |
| 2026-04-15 15:37 | 50.04470 | 8.56314 | 361 ft | 4 kts | 172° |
| 2026-04-15 15:38 | 50.04494 | 8.56318 | 356 ft | 4 kts | 220° |
| 2026-04-15 15:38 | 50.04509 | 8.56351 | 364 ft | 4 kts | 250° |
| 2026-04-15 15:38 | 50.04514 | 8.56373 | 361 ft | 0 kts | 249° |
| 2026-04-15 15:41 | 50.04500 | 8.56306 | 359 ft | 12 kts | 253° |
| 2026-04-15 15:42 | 50.04472 | 8.56199 | 357 ft | 10 kts | 250° |
| 2026-04-15 15:42 | 50.04444 | 8.56080 | 356 ft | 18 kts | 250° |
| 2026-04-15 15:42 | 50.04325 | 8.55938 | 360 ft | 30 kts | 163° |
| 2026-04-15 15:42 | 50.04209 | 8.55800 | 352 ft | 25 kts | 230° |
| 2026-04-15 15:43 | 50.04144 | 8.55539 | 351 ft | 27 kts | 250° |
| 2026-04-15 15:43 | 50.04076 | 8.55264 | 360 ft | 27 kts | 248° |
| 2026-04-15 15:43 | 50.04009 | 8.54986 | 360 ft | 28 kts | 250° |
| 2026-04-15 15:43 | 50.03941 | 8.54693 | 354 ft | 30 kts | 249° |
| 2026-04-15 15:44 | 50.03864 | 8.54386 | 355 ft | 31 kts | 248° |
| 2026-04-15 15:44 | 50.03769 | 8.54088 | 344 ft | 31 kts | 249° |
| 2026-04-15 15:44 | 50.03689 | 8.53766 | 346 ft | 33 kts | 250° |
| 2026-04-15 15:44 | 50.03607 | 8.53429 | 340 ft | 35 kts | 251° |
| 2026-04-15 15:45 | 50.03517 | 8.53059 | 334 ft | 37 kts | 251° |
| 2026-04-15 15:45 | 50.03432 | 8.52730 | 336 ft | 16 kts | 241° |
| 2026-04-15 15:45 | 50.03423 | 8.52701 | 333 ft | 0 kts | 243° |
| 2026-04-15 15:47 | 50.03407 | 8.52652 | 335 ft | 17 kts | 243° |
| 2026-04-15 15:47 | 50.03238 | 8.52597 | 335 ft | 48 kts | 179° |
| 2026-04-15 15:47 | 50.02680 | 8.52599 | 335 ft | 110 kts | 180° |
| 2026-04-15 15:47 | 50.01732 | 8.52609 | 332 ft | 160 kts | 180° |
| 2026-04-15 15:48 | 50.00581 | 8.52614 | 865 ft | 162 kts | 180° |
| 2026-04-15 15:48 | 49.99471 | 8.52624 | 1614 ft | 158 kts | 178° |
| 2026-04-15 15:48 | 49.98333 | 8.52735 | 2100 ft | 170 kts | 175° |
| 2026-04-15 15:48 | 49.97098 | 8.52875 | 2503 ft | 185 kts | 177° |
| 2026-04-15 15:49 | 49.95767 | 8.52960 | 2968 ft | 197 kts | 177° |
| 2026-04-15 15:49 | 49.94354 | 8.53073 | 3437 ft | 211 kts | 177° |
| 2026-04-15 15:49 | 49.92822 | 8.53181 | 3880 ft | 228 kts | 178° |
| 2026-04-15 15:49 | 49.91225 | 8.53283 | 3987 ft | 229 kts | 178° |
| 2026-04-15 15:50 | 49.89659 | 8.53382 | 4005 ft | 228 kts | 178° |
| 2026-04-15 15:50 | 49.88042 | 8.53489 | 4629 ft | 229 kts | 178° |
| 2026-04-15 15:50 | 49.86440 | 8.53595 | 5463 ft | 231 kts | 178° |
| 2026-04-15 15:50 | 49.84823 | 8.53703 | 6265 ft | 234 kts | 178° |
| 2026-04-15 15:51 | 49.83184 | 8.53813 | 7020 ft | 237 kts | 178° |
| 2026-04-15 15:51 | 49.81526 | 8.53922 | 7751 ft | 240 kts | 178° |
| 2026-04-15 15:51 | 49.79843 | 8.54033 | 8491 ft | 244 kts | 179° |
| 2026-04-15 15:51 | 49.78130 | 8.54131 | 9248 ft | 247 kts | 183° |
| 2026-04-15 15:52 | 49.76375 | 8.53941 | 9671 ft | 266 kts | 186° |
| 2026-04-15 15:52 | 49.74450 | 8.53680 | 10121 ft | 282 kts | 187° |
| 2026-04-15 15:52 | 49.72444 | 8.53402 | 10554 ft | 299 kts | 187° |
| 2026-04-15 15:52 | 49.70321 | 8.53108 | 10763 ft | 322 kts | 187° |
| 2026-04-15 15:53 | 49.68015 | 8.52794 | 11010 ft | 342 kts | 186° |
| 2026-04-15 15:53 | 49.65603 | 8.52473 | 11602 ft | 349 kts | 186° |
| 2026-04-15 15:53 | 49.63192 | 8.52158 | 12283 ft | 352 kts | 186° |
| 2026-04-15 15:53 | 49.60717 | 8.51834 | 12928 ft | 357 kts | 186° |
| 2026-04-15 15:54 | 49.58240 | 8.51511 | 13142 ft | 358 kts | 186° |
| 2026-04-15 15:54 | 49.55790 | 8.51192 | 13193 ft | 358 kts | 186° |
| 2026-04-15 15:54 | 49.53309 | 8.50867 | 13193 ft | 357 kts | 186° |
| 2026-04-15 15:54 | 49.50815 | 8.50539 | 13193 ft | 357 kts | 186° |
| 2026-04-15 15:55 | 49.49174 | 8.50321 | 13192 ft | 357 kts | 186° |
| 2026-04-15 15:55 | 49.46694 | 8.49990 | 13193 ft | 357 kts | 186° |
| 2026-04-15 15:55 | 49.43406 | 8.49558 | 13186 ft | 357 kts | 186° |
| 2026-04-15 15:55 | 49.40920 | 8.49234 | 13192 ft | 358 kts | 186° |
| 2026-04-15 15:56 | 49.39278 | 8.49019 | 13193 ft | 358 kts | 186° |
| 2026-04-15 15:56 | 49.35981 | 8.48592 | 13192 ft | 358 kts | 186° |
| 2026-04-15 15:56 | 49.34301 | 8.48375 | 13192 ft | 358 kts | 186° |
| 2026-04-15 15:56 | 49.31814 | 8.48053 | 13191 ft | 358 kts | 186° |
| 2026-04-15 15:57 | 49.29367 | 8.47736 | 13191 ft | 358 kts | 186° |
| 2026-04-15 15:57 | 49.26887 | 8.47414 | 13190 ft | 358 kts | 186° |
| 2026-04-15 15:57 | 49.24395 | 8.47093 | 13190 ft | 358 kts | 186° |
| 2026-04-15 15:57 | 49.21908 | 8.46771 | 13189 ft | 358 kts | 186° |
| 2026-04-15 15:58 | 49.19423 | 8.46443 | 13187 ft | 359 kts | 186° |
| 2026-04-15 15:58 | 49.16944 | 8.46115 | 13188 ft | 359 kts | 186° |
| 2026-04-15 15:58 | 49.14476 | 8.45796 | 13188 ft | 359 kts | 186° |
| 2026-04-15 15:58 | 49.11963 | 8.45472 | 13198 ft | 360 kts | 186° |
| 2026-04-15 15:59 | 49.09447 | 8.45145 | 13819 ft | 363 kts | 186° |
| 2026-04-15 15:59 | 49.06916 | 8.44808 | 14479 ft | 366 kts | 188° |
| 2026-04-15 15:59 | 49.04435 | 8.44092 | 15069 ft | 368 kts | 194° |
| 2026-04-15 15:59 | 49.01917 | 8.43213 | 15670 ft | 372 kts | 194° |
| 2026-04-15 16:00 | 48.99375 | 8.42321 | 16254 ft | 375 kts | 194° |
| 2026-04-15 16:00 | 48.96837 | 8.41431 | 16828 ft | 379 kts | 194° |
| 2026-04-15 16:00 | 48.94238 | 8.40522 | 17406 ft | 383 kts | 194° |
| 2026-04-15 16:00 | 48.91642 | 8.39619 | 17990 ft | 387 kts | 194° |
| 2026-04-15 16:01 | 48.88987 | 8.38698 | 18571 ft | 390 kts | 194° |
| 2026-04-15 16:01 | 48.86354 | 8.37789 | 19081 ft | 393 kts | 194° |
| 2026-04-15 16:01 | 48.83666 | 8.36862 | 19596 ft | 397 kts | 194° |
| 2026-04-15 16:01 | 48.80958 | 8.35927 | 20113 ft | 400 kts | 194° |
| 2026-04-15 16:02 | 48.78230 | 8.34983 | 20646 ft | 403 kts | 194° |
| 2026-04-15 16:02 | 48.75488 | 8.34008 | 21106 ft | 407 kts | 195° |
| 2026-04-15 16:02 | 48.72759 | 8.33010 | 21565 ft | 410 kts | 195° |
| 2026-04-15 16:02 | 48.69980 | 8.31981 | 22027 ft | 413 kts | 195° |
| 2026-04-15 16:03 | 48.67177 | 8.30945 | 22482 ft | 416 kts | 195° |
| 2026-04-15 16:03 | 48.64352 | 8.29904 | 22942 ft | 419 kts | 195° |
| 2026-04-15 16:03 | 48.61507 | 8.28860 | 23381 ft | 422 kts | 195° |
| 2026-04-15 16:03 | 48.58642 | 8.27815 | 23815 ft | 425 kts | 195° |
| 2026-04-15 16:04 | 48.55758 | 8.26770 | 24167 ft | 428 kts | 195° |
| 2026-04-15 16:04 | 48.52852 | 8.25722 | 24512 ft | 430 kts | 195° |
| 2026-04-15 16:04 | 48.49889 | 8.24979 | 24845 ft | 435 kts | 186° |
| 2026-04-15 16:04 | 48.46848 | 8.24977 | 25171 ft | 439 kts | 176° |
| 2026-04-15 16:05 | 48.43812 | 8.25632 | 25492 ft | 443 kts | 172° |
| 2026-04-15 16:05 | 48.40759 | 8.26381 | 25811 ft | 445 kts | 172° |
| 2026-04-15 16:05 | 48.37689 | 8.27130 | 26131 ft | 448 kts | 172° |
| 2026-04-15 16:05 | 48.34608 | 8.27879 | 26432 ft | 450 kts | 172° |
| 2026-04-15 16:06 | 48.31544 | 8.28621 | 26711 ft | 453 kts | 172° |
| 2026-04-15 16:06 | 48.28418 | 8.29374 | 27009 ft | 456 kts | 172° |
| 2026-04-15 16:06 | 48.25279 | 8.30130 | 27311 ft | 458 kts | 172° |
| 2026-04-15 16:06 | 48.22129 | 8.30888 | 27598 ft | 460 kts | 172° |
| 2026-04-15 16:07 | 48.18953 | 8.31653 | 27884 ft | 462 kts | 172° |
| 2026-04-15 16:07 | 48.15766 | 8.32419 | 28159 ft | 465 kts | 172° |
| 2026-04-15 16:07 | 48.09345 | 8.33970 | 28672 ft | 469 kts | 172° |
| 2026-04-15 16:08 | 48.06115 | 8.34752 | 28923 ft | 471 kts | 172° |
| 2026-04-15 16:08 | 48.02869 | 8.35541 | 29169 ft | 473 kts | 172° |
| 2026-04-15 16:08 | 47.99647 | 8.36323 | 29400 ft | 475 kts | 172° |
| 2026-04-15 16:08 | 47.96375 | 8.37112 | 29630 ft | 477 kts | 172° |
| 2026-04-15 16:09 | 47.93081 | 8.37905 | 29856 ft | 479 kts | 172° |
| 2026-04-15 16:09 | 47.89799 | 8.38695 | 30147 ft | 479 kts | 172° |
| 2026-04-15 16:09 | 47.86503 | 8.39490 | 30419 ft | 479 kts | 172° |
| 2026-04-15 16:09 | 47.83218 | 8.40280 | 30680 ft | 479 kts | 172° |
| 2026-04-15 16:10 | 47.79928 | 8.41067 | 30954 ft | 478 kts | 172° |
| 2026-04-15 16:10 | 47.76641 | 8.41857 | 31226 ft | 478 kts | 172° |
| 2026-04-15 16:10 | 47.73355 | 8.42647 | 31503 ft | 477 kts | 172° |
| 2026-04-15 16:10 | 47.70073 | 8.43432 | 31729 ft | 478 kts | 171° |
| 2026-04-15 16:11 | 47.66817 | 8.44154 | 31935 ft | 480 kts | 173° |
| 2026-04-15 16:11 | 47.63501 | 8.44736 | 32179 ft | 480 kts | 175° |
| 2026-04-15 16:11 | 47.60155 | 8.45204 | 32444 ft | 480 kts | 176° |
| 2026-04-15 16:11 | 47.56835 | 8.45614 | 32726 ft | 479 kts | 176° |
| 2026-04-15 16:12 | 47.53509 | 8.46015 | 32985 ft | 479 kts | 176° |
| 2026-04-15 16:12 | 47.50193 | 8.46437 | 33252 ft | 479 kts | 176° |
| 2026-04-15 16:12 | 47.46875 | 8.46894 | 33510 ft | 478 kts | 175° |
| 2026-04-15 16:12 | 47.43596 | 8.47379 | 33775 ft | 478 kts | 175° |
| 2026-04-15 16:13 | 47.40276 | 8.47886 | 34049 ft | 478 kts | 175° |
| 2026-04-15 16:13 | 47.36971 | 8.48395 | 34308 ft | 477 kts | 175° |
| 2026-04-15 16:13 | 47.33661 | 8.48897 | 34552 ft | 477 kts | 175° |
| 2026-04-15 16:13 | 47.30350 | 8.49387 | 34793 ft | 476 kts | 175° |
| 2026-04-15 16:14 | 47.27052 | 8.49863 | 35021 ft | 476 kts | 175° |
| 2026-04-15 16:14 | 47.23787 | 8.50331 | 35229 ft | 476 kts | 175° |
| 2026-04-15 16:14 | 47.20483 | 8.50808 | 35442 ft | 475 kts | 175° |
| 2026-04-15 16:14 | 47.17194 | 8.51282 | 35651 ft | 475 kts | 175° |
| 2026-04-15 16:15 | 47.13899 | 8.51760 | 35858 ft | 474 kts | 175° |
| 2026-04-15 16:15 | 47.10609 | 8.52238 | 36066 ft | 474 kts | 175° |
| 2026-04-15 16:15 | 47.07329 | 8.52714 | 36263 ft | 473 kts | 175° |
| 2026-04-15 16:15 | 47.04080 | 8.53186 | 36428 ft | 474 kts | 175° |
| 2026-04-15 16:16 | 47.00802 | 8.53662 | 36610 ft | 474 kts | 175° |
| 2026-04-15 16:16 | 46.97518 | 8.54139 | 36781 ft | 473 kts | 175° |
| 2026-04-15 16:16 | 46.94237 | 8.54612 | 36959 ft | 473 kts | 175° |
| 2026-04-15 16:16 | 46.90960 | 8.55084 | 37141 ft | 472 kts | 175° |
| 2026-04-15 16:17 | 46.87676 | 8.55556 | 37193 ft | 474 kts | 175° |
| 2026-04-15 16:17 | 46.81105 | 8.56502 | 37178 ft | 475 kts | 174° |
| 2026-04-15 16:18 | 46.74520 | 8.57449 | 37181 ft | 476 kts | 174° |
| 2026-04-15 16:18 | 46.67924 | 8.58389 | 37171 ft | 476 kts | 174° |
| 2026-04-15 16:19 | 46.61344 | 8.59320 | 37155 ft | 479 kts | 174° |
| 2026-04-15 16:19 | 46.54657 | 8.60266 | 37134 ft | 480 kts | 174° |
| 2026-04-15 16:20 | 46.48029 | 8.61206 | 37143 ft | 481 kts | 174° |
| 2026-04-15 16:20 | 46.41350 | 8.62156 | 37134 ft | 479 kts | 174° |
| 2026-04-15 16:21 | 46.34737 | 8.63102 | 37135 ft | 481 kts | 174° |
| 2026-04-15 16:21 | 46.28054 | 8.64034 | 37137 ft | 481 kts | 174° |
| 2026-04-15 16:22 | 46.21386 | 8.64958 | 37115 ft | 480 kts | 174° |
| 2026-04-15 16:22 | 46.14718 | 8.65887 | 37117 ft | 482 kts | 175° |
| 2026-04-15 16:23 | 46.08063 | 8.65277 | 37100 ft | 480 kts | 194° |
| 2026-04-15 16:23 | 46.01717 | 8.62526 | 37108 ft | 480 kts | 199° |
| 2026-04-15 16:24 | 45.95331 | 8.59621 | 37120 ft | 481 kts | 199° |
| 2026-04-15 16:24 | 45.88922 | 8.56730 | 37130 ft | 482 kts | 199° |
| 2026-04-15 16:25 | 45.82552 | 8.53857 | 37116 ft | 482 kts | 199° |
| 2026-04-15 16:25 | 45.76129 | 8.50960 | 37128 ft | 483 kts | 198° |
| 2026-04-15 16:26 | 45.69726 | 8.48076 | 37141 ft | 484 kts | 199° |
| 2026-04-15 16:26 | 45.63279 | 8.45170 | 37146 ft | 485 kts | 198° |
| 2026-04-15 16:26 | 45.60061 | 8.43730 | 37016 ft | 487 kts | 198° |
| 2026-04-15 16:27 | 45.56811 | 8.42282 | 36495 ft | 487 kts | 198° |
| 2026-04-15 16:27 | 45.53579 | 8.40845 | 35977 ft | 487 kts | 198° |
| 2026-04-15 16:27 | 45.50370 | 8.39420 | 35485 ft | 488 kts | 198° |
| 2026-04-15 16:27 | 45.47130 | 8.37979 | 34993 ft | 488 kts | 198° |
| 2026-04-15 16:28 | 45.43868 | 8.36528 | 34512 ft | 490 kts | 198° |
| 2026-04-15 16:28 | 45.40608 | 8.35077 | 34026 ft | 491 kts | 198° |
| 2026-04-15 16:28 | 45.37338 | 8.33624 | 33482 ft | 493 kts | 198° |
| 2026-04-15 16:28 | 45.34096 | 8.32187 | 32964 ft | 494 kts | 198° |
| 2026-04-15 16:29 | 45.30804 | 8.30730 | 32444 ft | 495 kts | 198° |
| 2026-04-15 16:29 | 45.27510 | 8.29275 | 31934 ft | 496 kts | 198° |
| 2026-04-15 16:29 | 45.24194 | 8.27811 | 31425 ft | 498 kts | 198° |
| 2026-04-15 16:29 | 45.20884 | 8.26350 | 30943 ft | 499 kts | 198° |
| 2026-04-15 16:30 | 45.17589 | 8.24899 | 30461 ft | 500 kts | 198° |
| 2026-04-15 16:30 | 45.14258 | 8.23436 | 29941 ft | 501 kts | 198° |
| 2026-04-15 16:30 | 45.10930 | 8.21978 | 29385 ft | 499 kts | 198° |
| 2026-04-15 16:30 | 45.07613 | 8.20525 | 28840 ft | 495 kts | 198° |
| 2026-04-15 16:31 | 45.04351 | 8.19095 | 28306 ft | 492 kts | 198° |
| 2026-04-15 16:31 | 45.01089 | 8.17666 | 27779 ft | 487 kts | 198° |
| 2026-04-15 16:31 | 44.97893 | 8.16270 | 27268 ft | 483 kts | 198° |
| 2026-04-15 16:31 | 44.94686 | 8.14869 | 26760 ft | 478 kts | 198° |
| 2026-04-15 16:32 | 44.91515 | 8.13483 | 26260 ft | 474 kts | 198° |
| 2026-04-15 16:32 | 44.88404 | 8.12124 | 25783 ft | 471 kts | 198° |
| 2026-04-15 16:32 | 44.85271 | 8.10757 | 25297 ft | 467 kts | 198° |
| 2026-04-15 16:32 | 44.82173 | 8.09408 | 24824 ft | 464 kts | 197° |
| 2026-04-15 16:33 | 44.79099 | 8.08075 | 24358 ft | 460 kts | 197° |
| 2026-04-15 16:33 | 44.76095 | 8.06772 | 23909 ft | 456 kts | 197° |
| 2026-04-15 16:33 | 44.73058 | 8.05456 | 23406 ft | 452 kts | 197° |
| 2026-04-15 16:33 | 44.70058 | 8.04157 | 22850 ft | 447 kts | 197° |
| 2026-04-15 16:34 | 44.67103 | 8.02879 | 22323 ft | 442 kts | 197° |
| 2026-04-15 16:34 | 44.64201 | 8.01627 | 21808 ft | 437 kts | 197° |
| 2026-04-15 16:34 | 44.61307 | 8.00382 | 21297 ft | 433 kts | 197° |
| 2026-04-15 16:34 | 44.58439 | 7.99147 | 20786 ft | 428 kts | 197° |
| 2026-04-15 16:35 | 44.55600 | 7.97923 | 20302 ft | 424 kts | 197° |
| 2026-04-15 16:35 | 44.52797 | 7.96715 | 19805 ft | 420 kts | 197° |
| 2026-04-15 16:35 | 44.50000 | 7.95514 | 19325 ft | 417 kts | 197° |
| 2026-04-15 16:35 | 44.47240 | 7.94335 | 18854 ft | 413 kts | 197° |
| 2026-04-15 16:36 | 44.44503 | 7.93165 | 18390 ft | 410 kts | 197° |
| 2026-04-15 16:36 | 44.41828 | 7.92018 | 17993 ft | 404 kts | 197° |
| 2026-04-15 16:36 | 44.39144 | 7.90863 | 17586 ft | 401 kts | 197° |
| 2026-04-15 16:36 | 44.36484 | 7.89721 | 17192 ft | 398 kts | 197° |
| 2026-04-15 16:37 | 44.33848 | 7.88594 | 16806 ft | 395 kts | 197° |
| 2026-04-15 16:37 | 44.31218 | 7.87475 | 16423 ft | 393 kts | 197° |
| 2026-04-15 16:37 | 44.28614 | 7.86364 | 16032 ft | 391 kts | 197° |
| 2026-04-15 16:37 | 44.26049 | 7.85266 | 15652 ft | 388 kts | 197° |
| 2026-04-15 16:38 | 44.23478 | 7.84170 | 15283 ft | 386 kts | 197° |
| 2026-04-15 16:38 | 44.20913 | 7.83081 | 14917 ft | 383 kts | 197° |
| 2026-04-15 16:38 | 44.18368 | 7.82004 | 14551 ft | 381 kts | 197° |
| 2026-04-15 16:38 | 44.15844 | 7.80933 | 14194 ft | 378 kts | 197° |
| 2026-04-15 16:39 | 44.13316 | 7.79857 | 13822 ft | 381 kts | 197° |
| 2026-04-15 16:39 | 44.10778 | 7.78779 | 13423 ft | 379 kts | 197° |
| 2026-04-15 16:39 | 44.08252 | 7.77711 | 13112 ft | 378 kts | 197° |
| 2026-04-15 16:39 | 44.05789 | 7.76583 | 13077 ft | 376 kts | 203° |
| 2026-04-15 16:40 | 44.03437 | 7.74891 | 13097 ft | 376 kts | 215° |
| 2026-04-15 16:40 | 44.01385 | 7.72662 | 13105 ft | 375 kts | 225° |
| 2026-04-15 16:40 | 43.99669 | 7.69963 | 13110 ft | 372 kts | 236° |
| 2026-04-15 16:40 | 43.98192 | 7.67015 | 13092 ft | 371 kts | 238° |
| 2026-04-15 16:41 | 43.96719 | 7.64081 | 12713 ft | 374 kts | 237° |
| 2026-04-15 16:41 | 43.95238 | 7.61150 | 12227 ft | 369 kts | 237° |
| 2026-04-15 16:41 | 43.93761 | 7.58234 | 11746 ft | 365 kts | 236° |
| 2026-04-15 16:41 | 43.92307 | 7.55366 | 11272 ft | 361 kts | 236° |
| 2026-04-15 16:42 | 43.90869 | 7.52534 | 10810 ft | 357 kts | 236° |
| 2026-04-15 16:42 | 43.89452 | 7.49750 | 10347 ft | 354 kts | 236° |
| 2026-04-15 16:42 | 43.88038 | 7.46975 | 9885 ft | 350 kts | 236° |
| 2026-04-15 16:42 | 43.86541 | 7.44313 | 9389 ft | 347 kts | 225° |
| 2026-04-15 16:43 | 43.85292 | 7.42961 | 9057 ft | 345 kts | 211° |
| 2026-04-15 16:43 | 43.82297 | 7.41646 | 8406 ft | 340 kts | 183° |
| 2026-04-15 16:43 | 43.79972 | 7.42004 | 7975 ft | 335 kts | 162° |
| 2026-04-15 16:43 | 43.77912 | 7.43414 | 7549 ft | 329 kts | 143° |
| 2026-04-15 16:44 | 43.76126 | 7.45378 | 7131 ft | 326 kts | 141° |
| 2026-04-15 16:44 | 43.74939 | 7.46703 | 6854 ft | 323 kts | 141° |
| 2026-04-15 16:44 | 43.73201 | 7.48644 | 6437 ft | 319 kts | 141° |
| 2026-04-15 16:44 | 43.71498 | 7.50522 | 6000 ft | 314 kts | 145° |
| 2026-04-15 16:45 | 43.69528 | 7.51752 | 5566 ft | 308 kts | 169° |
| 2026-04-15 16:45 | 43.67416 | 7.51729 | 5142 ft | 302 kts | 194° |
| 2026-04-15 16:45 | 43.65548 | 7.50527 | 4714 ft | 296 kts | 218° |
| 2026-04-15 16:45 | 43.64120 | 7.48510 | 4294 ft | 292 kts | 229° |
| 2026-04-15 16:46 | 43.62956 | 7.46238 | 3868 ft | 289 kts | 244° |
| 2026-04-15 16:46 | 43.62436 | 7.43627 | 3450 ft | 283 kts | 265° |
| 2026-04-15 16:46 | 43.62608 | 7.41003 | 3064 ft | 268 kts | 286° |
| 2026-04-15 16:46 | 43.63344 | 7.38735 | 2594 ft | 258 kts | 304° |
| 2026-04-15 16:47 | 43.64389 | 7.36714 | 1892 ft | 257 kts | 304° |
| 2026-04-15 16:47 | 43.64705 | 7.36099 | 1732 ft | 254 kts | 304° |
| 2026-04-15 16:48 | 43.65068 | 7.35392 | 1539 ft | 251 kts | 304° |
| 2026-04-15 16:48 | 43.66038 | 7.33485 | 1275 ft | 234 kts | 303° |
| 2026-04-15 16:48 | 43.66926 | 7.31734 | 993 ft | 210 kts | 303° |
| 2026-04-15 16:48 | 43.67722 | 7.30162 | 910 ft | 183 kts | 303° |
| 2026-04-15 16:49 | 43.68418 | 7.28788 | 963 ft | 167 kts | 302° |
| 2026-04-15 16:49 | 43.69042 | 7.27560 | 1009 ft | 151 kts | 302° |
| 2026-04-15 16:49 | 43.69540 | 7.26331 | 947 ft | 142 kts | 281° |
| 2026-04-15 16:49 | 43.69246 | 7.25171 | 1155 ft | 141 kts | 215° |
| 2026-04-15 16:50 | 43.68370 | 7.24520 | 794 ft | 143 kts | 210° |
| 2026-04-15 16:50 | 43.67561 | 7.23703 | 399 ft | 143 kts | 225° |
| 2026-04-15 16:50 | 43.66879 | 7.22738 | 111 ft | 137 kts | 225° |
| 2026-04-15 16:50 | 43.66258 | 7.21884 | 23 ft | 101 kts | 225° |
| 2026-04-15 16:51 | 43.65928 | 7.21433 | 21 ft | 51 kts | 225° |
| 2026-04-15 16:51 | 43.65706 | 7.21122 | 22 ft | 39 kts | 225° |
| 2026-04-15 16:51 | 43.65644 | 7.20911 | 21 ft | 24 kts | 312° |
| 2026-04-15 16:51 | 43.65794 | 7.20861 | 21 ft | 23 kts | 347° |
| 2026-04-15 16:52 | 43.65955 | 7.20808 | 22 ft | 25 kts | 346° |
| 2026-04-15 16:52 | 43.66081 | 7.20740 | 21 ft | 10 kts | 290° |